createdAt,value
2022-12-16T00:01:14.916Z,96666.59
2022-12-16T00:03:42.314Z,96659.13
2022-12-16T00:06:09.645Z,96647.03
2022-12-16T00:08:38.593Z,96641.84
2022-12-16T00:11:05.799Z,96652.00
2022-12-16T00:13:34.155Z,96663.28
2022-12-16T00:16:06.068Z,96652.28
2022-12-16T00:18:32.956Z,96640.00
2022-12-16T00:21:00.042Z,96664.66
2022-12-16T00:23:27.662Z,96678.31
2022-12-16T00:25:54.434Z,96681.53
2022-12-16T00:28:24.713Z,96680.84
2022-12-16T00:30:55.106Z,96685.84
2022-12-16T00:33:25.792Z,96702.66
2022-12-16T00:35:52.930Z,96698.53
2022-12-16T00:38:20.283Z,96697.69
2022-12-16T00:40:46.849Z,96637.75
2022-12-16T00:43:13.389Z,96689.94
2022-12-16T00:45:40.078Z,96705.19
2022-12-16T00:48:07.297Z,96733.47
2022-12-16T00:50:35.028Z,96751.53
2022-12-16T00:53:01.615Z,96751.75
2022-12-16T00:55:28.097Z,96721.78
2022-12-16T00:57:54.954Z,96730.88
2022-12-16T01:00:22.489Z,96738.25
2022-12-16T01:02:50.181Z,96751.81
2022-12-16T01:05:20.617Z,96777.31
2022-12-16T01:07:48.106Z,96826.69
2022-12-16T01:10:15.006Z,96847.22
2022-12-16T01:12:41.480Z,96817.47
2022-12-16T01:15:09.275Z,96799.88
2022-12-16T01:17:35.730Z,96799.78
2022-12-16T01:20:03.167Z,96740.47
2022-12-16T01:22:33.657Z,96854.09
2022-12-16T01:25:01.053Z,96837.53
2022-12-16T01:27:28.863Z,96841.00
2022-12-16T01:29:55.457Z,96842.19
2022-12-16T01:32:22.248Z,96845.50
2022-12-16T01:34:55.585Z,96868.31
2022-12-16T01:37:23.905Z,96844.06
2022-12-16T01:39:50.836Z,96898.31
2022-12-16T01:42:20.784Z,96909.22
2022-12-16T01:44:49.851Z,96909.78
2022-12-16T01:47:25.366Z,96902.22
2022-12-16T01:50:14.359Z,96880.97
2022-12-16T01:52:46.513Z,96870.59
2022-12-16T01:55:18.564Z,96887.59
2022-12-16T01:57:51.708Z,96895.69
2022-12-16T02:00:21.984Z,96929.66
2022-12-16T02:02:49.487Z,96932.84
2022-12-16T02:05:23.130Z,96927.63
2022-12-16T02:08:10.912Z,96931.78
2022-12-16T02:10:43.554Z,96931.66
2022-12-16T02:13:25.300Z,96953.28
2022-12-16T02:16:16.950Z,96957.84
2022-12-16T02:18:58.492Z,96937.09
2022-12-16T02:21:30.575Z,96922.28
2022-12-16T02:24:27.061Z,96924.41
2022-12-16T02:26:53.561Z,96946.81
2022-12-16T02:29:38.797Z,96943.19
2022-12-16T02:32:12.024Z,96960.00
2022-12-16T02:34:55.046Z,96957.00
2022-12-16T02:37:30.266Z,96955.75
2022-12-16T02:40:01.129Z,96940.16
2022-12-16T02:42:46.303Z,96937.63
2022-12-16T02:45:40.189Z,96957.53
2022-12-16T02:48:07.172Z,96971.00
2022-12-16T02:50:39.974Z,96931.31
2022-12-16T02:53:09.395Z,96995.38
2022-12-16T02:56:08.096Z,96997.97
2022-12-16T02:58:56.831Z,96999.19
2022-12-16T03:01:35.850Z,96967.91
2022-12-16T03:04:12.749Z,96985.03
2022-12-16T03:06:43.796Z,96986.94
2022-12-16T03:09:13.949Z,96948.22
2022-12-16T03:11:43.922Z,96974.44
2022-12-16T03:14:14.525Z,96979.38
2022-12-16T03:16:42.829Z,96957.72
2022-12-16T03:19:11.744Z,96976.13
2022-12-16T03:22:01.544Z,96930.69
2022-12-16T03:24:29.855Z,96955.47
2022-12-16T03:27:07.943Z,96949.09
2022-12-16T03:29:55.899Z,96961.56
2022-12-16T03:32:37.317Z,96939.09
2022-12-16T03:35:16.579Z,96952.69
2022-12-16T03:37:46.547Z,96971.53
2022-12-16T03:40:14.062Z,96980.56
2022-12-16T03:42:42.728Z,96959.34
2022-12-16T03:45:16.853Z,96950.94
2022-12-16T03:47:49.340Z,96921.09
2022-12-16T03:50:16.611Z,96938.28
2022-12-16T03:52:42.994Z,96902.47
2022-12-16T03:55:09.394Z,96884.44
2022-12-16T03:57:36.262Z,96851.94
2022-12-16T04:00:02.815Z,96854.84
2022-12-16T04:02:29.365Z,96860.25
2022-12-16T04:04:55.881Z,96834.09
2022-12-16T04:07:24.478Z,96806.53
2022-12-16T04:09:52.228Z,96814.63
2022-12-16T04:12:38.186Z,96828.19
2022-12-16T04:15:24.555Z,96820.97
2022-12-16T04:18:09.359Z,96856.56
2022-12-16T04:20:58.344Z,96843.69
2022-12-16T04:23:46.354Z,96883.84
2022-12-16T04:26:12.997Z,96915.25
2022-12-16T04:28:39.822Z,96917.41
2022-12-16T04:31:06.736Z,96938.69
2022-12-16T04:33:52.358Z,96946.63
2022-12-16T04:36:37.943Z,96952.44
2022-12-16T04:39:27.969Z,96941.75
2022-12-16T04:42:13.489Z,96931.66
2022-12-16T04:44:58.695Z,96986.22
2022-12-16T04:47:44.451Z,97021.72
2022-12-16T04:50:29.321Z,96998.41
2022-12-16T04:53:17.746Z,97024.34
2022-12-16T04:56:04.764Z,97033.28
2022-12-16T04:58:50.339Z,97039.41
2022-12-16T05:01:35.381Z,97047.56
2022-12-16T05:04:20.599Z,97062.97
2022-12-16T05:07:05.992Z,97072.22
2022-12-16T05:09:50.927Z,97076.88
2022-12-16T05:12:35.981Z,97069.16
2022-12-16T05:15:20.955Z,97066.91
2022-12-16T05:18:05.766Z,97078.50
2022-12-16T05:20:50.641Z,97103.47
2022-12-16T05:23:36.148Z,97117.06
2022-12-16T05:26:21.262Z,97105.50
2022-12-16T05:29:06.153Z,97109.38
2022-12-16T05:31:51.552Z,97102.31
2022-12-16T05:34:36.484Z,97063.63
2022-12-16T05:37:21.423Z,97088.84
2022-12-16T05:40:07.367Z,97086.91
2022-12-16T05:42:52.503Z,97086.50
2022-12-16T05:45:37.667Z,97096.88
2022-12-16T05:48:22.893Z,97068.66
2022-12-16T05:51:07.853Z,97097.63
2022-12-16T05:53:53.328Z,97084.09
2022-12-16T05:56:38.129Z,97101.84
2022-12-16T05:59:23.800Z,97099.59
2022-12-16T06:02:09.226Z,97110.78
2022-12-16T06:04:55.297Z,97094.22
2022-12-16T06:07:40.539Z,97102.09
2022-12-16T06:10:25.602Z,97109.53
2022-12-16T06:13:10.389Z,97130.16
2022-12-16T06:15:55.422Z,97119.97
2022-12-16T06:18:40.676Z,97163.38
2022-12-16T06:21:25.711Z,97181.16
2022-12-16T06:24:10.750Z,97162.41
2022-12-16T06:26:55.696Z,97148.53
2022-12-16T06:29:40.479Z,97160.25
2022-12-16T06:32:25.428Z,97187.97
2022-12-16T06:35:10.345Z,97192.22
2022-12-16T06:37:55.609Z,97219.75
2022-12-16T06:40:40.541Z,97229.72
2022-12-16T06:43:25.318Z,97238.84
2022-12-16T06:46:10.340Z,97240.13
2022-12-16T06:48:55.459Z,97275.47
2022-12-16T06:51:40.491Z,97265.16
2022-12-16T06:54:25.338Z,97252.00
2022-12-16T06:57:10.567Z,97243.41
2022-12-16T06:59:55.759Z,97239.03
2022-12-16T07:02:40.784Z,97202.22
2022-12-16T07:05:34.231Z,97217.00
2022-12-16T07:08:19.268Z,97244.72
2022-12-16T07:11:16.183Z,97230.59
2022-12-16T07:14:01.852Z,97269.47
2022-12-16T07:16:46.752Z,97283.66
2022-12-16T07:19:32.090Z,97265.81
2022-12-16T07:22:16.919Z,97306.28
2022-12-16T07:25:01.768Z,97307.63
2022-12-16T07:27:46.653Z,97307.78
2022-12-16T07:30:32.204Z,97298.34
2022-12-16T07:33:17.069Z,97268.63
2022-12-16T07:36:01.973Z,97259.66
2022-12-16T07:38:46.865Z,97262.34
2022-12-16T07:41:32.249Z,97193.91
2022-12-16T07:44:17.618Z,97217.09
2022-12-16T07:47:02.446Z,97191.59
2022-12-16T07:49:47.423Z,97209.59
2022-12-16T07:52:32.570Z,97201.25
2022-12-16T07:55:17.396Z,97150.16
2022-12-16T07:58:08.260Z,97160.63
2022-12-16T08:00:54.266Z,97119.53
2022-12-16T08:03:41.591Z,97073.22
2022-12-16T08:06:26.874Z,97079.59
2022-12-16T08:09:11.800Z,97062.63
2022-12-16T08:11:56.841Z,97062.25
2022-12-16T08:14:42.280Z,97063.34
2022-12-16T08:17:27.283Z,97050.88
2022-12-16T08:20:12.313Z,97044.69
2022-12-16T08:22:59.225Z,97057.94
2022-12-16T08:25:44.773Z,97029.19
2022-12-16T08:28:29.667Z,97017.13
2022-12-16T08:31:14.884Z,96994.50
2022-12-16T08:34:00.149Z,97015.91
2022-12-16T08:36:44.971Z,97032.56
2022-12-16T08:39:30.437Z,96997.06
2022-12-16T08:42:15.233Z,96975.59
2022-12-16T08:45:00.056Z,96953.72
2022-12-16T08:47:45.521Z,96887.19
2022-12-16T08:50:30.380Z,96862.63
2022-12-16T08:53:15.402Z,96838.53
2022-12-16T08:56:01.302Z,96813.03
2022-12-16T08:58:46.515Z,96773.47
2022-12-16T09:01:32.148Z,96733.00
2022-12-16T09:04:17.461Z,96765.28
2022-12-16T09:07:02.807Z,96798.53
2022-12-16T09:09:47.750Z,96809.00
2022-12-16T09:12:32.753Z,96810.09
2022-12-16T09:15:17.837Z,96831.38
2022-12-16T09:18:03.002Z,96835.00
2022-12-16T09:20:48.922Z,96854.06
2022-12-16T09:23:34.298Z,96852.81
2022-12-16T09:26:21.271Z,96859.50
2022-12-16T09:29:06.629Z,96826.63
2022-12-16T09:31:53.985Z,96878.19
2022-12-16T09:34:41.388Z,96883.13
2022-12-16T09:37:26.273Z,96871.00
2022-12-16T09:40:11.685Z,96890.09
2022-12-16T09:43:23.697Z,96892.69
2022-12-16T09:46:23.456Z,96883.72
2022-12-16T09:49:41.944Z,96896.25
2022-12-16T09:52:42.976Z,96900.28
2022-12-16T09:55:42.442Z,96891.59
2022-12-16T09:58:30.327Z,96875.66
2022-12-16T10:01:15.772Z,96881.31
2022-12-16T10:04:01.203Z,96895.25
2022-12-16T10:07:05.243Z,96883.50
2022-12-16T10:10:11.770Z,96881.66
2022-12-16T10:13:03.124Z,96886.16
2022-12-16T10:16:14.465Z,96841.53
2022-12-16T10:19:25.138Z,96888.59
2022-12-16T10:22:25.737Z,96879.28
2022-12-16T10:25:24.779Z,96880.34
2022-12-16T10:28:15.235Z,96866.28
2022-12-16T10:31:00.628Z,96871.69
2022-12-16T10:33:47.931Z,96854.59
2022-12-16T10:36:37.557Z,96863.19
2022-12-16T10:39:33.076Z,96881.81
2022-12-16T10:42:20.616Z,96862.03
2022-12-16T10:45:14.165Z,96871.59
2022-12-16T10:47:59.135Z,96864.72
2022-12-16T10:50:44.652Z,96862.25
2022-12-16T10:53:35.331Z,96876.63
2022-12-16T10:57:06.040Z,96853.31
2022-12-16T10:59:59.137Z,96794.00
2022-12-16T11:02:46.601Z,96816.25
2022-12-16T11:05:44.197Z,96830.53
2022-12-16T11:08:41.463Z,96863.50
2022-12-16T11:11:39.204Z,96922.75
2022-12-16T11:14:59.523Z,96963.69
2022-12-16T11:17:50.417Z,96992.06
2022-12-16T11:20:41.521Z,97013.59
2022-12-16T11:23:40.616Z,97035.78
2022-12-16T11:26:35.885Z,97098.88
2022-12-16T11:29:27.482Z,97100.38
2022-12-16T11:32:41.483Z,97140.47
2022-12-16T11:35:37.153Z,97169.38
2022-12-16T11:38:25.010Z,97215.66
2022-12-16T11:41:11.334Z,97228.50
2022-12-16T11:44:02.592Z,97276.31
2022-12-16T11:46:48.168Z,97267.00
2022-12-16T11:49:42.843Z,97290.53
2022-12-16T11:52:38.955Z,97312.34
2022-12-16T11:59:03.361Z,97366.44
2022-12-16T12:02:03.843Z,97368.06
2022-12-16T12:04:49.064Z,97382.53
2022-12-16T12:07:45.781Z,97420.78
2022-12-16T12:11:14.905Z,97408.50
2022-12-16T12:14:52.663Z,97439.63
2022-12-16T12:17:58.240Z,97429.44
2022-12-16T12:21:03.191Z,97443.78
2022-12-16T12:23:58.028Z,97466.81
2022-12-16T12:26:55.670Z,97474.00
2022-12-16T12:29:59.888Z,97470.75
2022-12-16T12:33:07.942Z,97497.22
2022-12-16T12:36:14.473Z,97530.75
2022-12-16T12:39:20.391Z,97515.91
2022-12-16T12:42:45.725Z,97521.81
2022-12-16T12:46:15.619Z,97552.13
2022-12-16T12:49:42.152Z,97578.69
2022-12-16T12:52:59.460Z,97624.50
2022-12-16T12:55:54.473Z,97604.31
2022-12-16T12:58:42.742Z,97612.34
2022-12-16T13:01:30.768Z,97641.25
2022-12-16T13:04:29.848Z,97611.00
2022-12-16T13:07:15.959Z,97591.50
2022-12-16T13:10:00.891Z,97574.06
2022-12-16T13:12:47.412Z,97561.19
2022-12-16T13:15:55.486Z,97591.38
2022-12-16T13:18:48.831Z,97600.31
2022-12-16T13:21:56.850Z,97642.75
2022-12-16T13:24:45.486Z,97710.72
2022-12-16T13:27:33.370Z,97740.03
2022-12-16T13:30:36.590Z,97816.59
2022-12-16T13:33:42.038Z,97923.47
2022-12-16T13:36:28.966Z,97944.03
2022-12-16T13:39:19.526Z,97993.50
2022-12-16T13:42:08.173Z,98030.78
2022-12-16T13:45:02.335Z,98015.59
2022-12-16T13:48:13.160Z,98004.16
2022-12-16T13:51:08.156Z,98024.88
2022-12-16T13:54:01.308Z,98009.06
2022-12-16T13:56:56.494Z,97969.53
2022-12-16T13:59:46.454Z,97982.34
2022-12-16T14:02:51.980Z,97948.22
2022-12-16T14:05:41.370Z,97915.44
2022-12-16T14:08:35.980Z,97893.53
2022-12-16T14:11:36.671Z,97869.28
2022-12-16T14:14:39.929Z,97850.19
2022-12-16T14:17:35.935Z,97836.44
2022-12-16T14:20:25.806Z,97822.53
2022-12-16T14:23:55.479Z,97801.41
2022-12-16T14:26:35.856Z,97787.53
2022-12-16T14:29:22.477Z,97777.56
2022-12-16T14:32:07.793Z,97760.19
2022-12-16T14:34:55.170Z,97750.91
2022-12-16T14:37:40.553Z,97720.28
2022-12-16T14:40:41.993Z,97702.22
2022-12-16T14:43:42.435Z,97686.50
2022-12-16T14:46:45.882Z,97682.44
2022-12-16T14:49:39.439Z,97658.41
2022-12-16T14:52:36.715Z,97646.00
2022-12-16T14:55:44.940Z,97638.88
2022-12-16T14:58:34.423Z,97627.91
2022-12-16T15:01:31.195Z,97620.88
2022-12-16T15:04:18.034Z,97584.25
2022-12-16T15:07:06.881Z,97568.53
2022-12-16T15:10:06.729Z,97538.56
2022-12-16T15:12:57.550Z,97550.41
2022-12-16T15:15:58.267Z,97521.75
2022-12-16T15:18:50.595Z,97516.03
2022-12-16T15:21:36.404Z,97500.50
2022-12-16T15:24:35.402Z,97481.66
2022-12-16T15:27:40.037Z,97490.69
2022-12-16T15:30:59.635Z,97468.78
2022-12-16T15:34:19.530Z,97470.97
2022-12-16T15:37:05.210Z,97468.44
2022-12-16T15:40:00.856Z,97443.47
2022-12-16T15:42:47.874Z,97443.41
2022-12-16T15:45:36.044Z,97444.91
2022-12-16T15:48:36.553Z,97461.94
2022-12-16T15:51:22.167Z,97436.06
2022-12-16T15:54:21.692Z,97432.16
2022-12-16T15:57:06.844Z,97432.63
2022-12-16T15:59:57.581Z,97421.63
2022-12-16T16:02:54.494Z,97412.47
2022-12-16T16:05:43.662Z,97415.34
2022-12-16T16:08:31.940Z,97400.38
2022-12-16T16:11:16.770Z,97415.63
2022-12-16T16:14:07.184Z,97403.81
2022-12-16T16:16:54.628Z,97405.97
2022-12-16T16:19:44.956Z,97424.38
2022-12-16T16:22:32.303Z,97409.69
2022-12-16T16:25:17.854Z,97410.25
2022-12-16T16:28:02.716Z,97395.94
2022-12-16T16:30:51.197Z,97420.88
2022-12-16T16:33:36.486Z,97422.09
2022-12-16T16:36:32.392Z,97414.19
2022-12-16T16:39:17.153Z,97427.97
2022-12-16T16:42:01.984Z,97429.91
2022-12-16T16:44:46.821Z,97409.06
2022-12-16T16:47:35.828Z,97423.94
2022-12-16T16:50:21.128Z,97415.06
2022-12-16T16:53:06.509Z,97440.25
2022-12-16T16:55:51.464Z,97430.81
2022-12-16T16:58:46.643Z,97432.06
2022-12-16T17:01:33.835Z,97452.81
2022-12-16T17:04:19.428Z,97449.94
2022-12-16T17:07:04.822Z,97448.81
2022-12-16T17:09:50.018Z,97437.00
2022-12-16T17:12:44.275Z,97449.34
2022-12-16T17:15:37.644Z,97451.81
2022-12-16T17:18:24.273Z,97434.41
2022-12-16T17:21:10.054Z,97452.22
2022-12-16T17:23:55.670Z,97460.16
2022-12-16T17:26:41.686Z,97461.00
2022-12-16T17:29:36.128Z,97455.16
2022-12-16T17:32:20.998Z,97472.38
2022-12-16T17:35:05.963Z,97479.72
2022-12-16T17:37:50.781Z,97475.50
2022-12-16T17:40:36.178Z,97490.16
2022-12-16T17:43:22.162Z,97500.59
2022-12-16T17:46:30.361Z,97495.47
2022-12-16T17:49:17.036Z,97517.09
2022-12-16T17:52:02.436Z,97508.72
2022-12-16T17:54:47.733Z,97518.91
2022-12-16T17:57:33.190Z,97520.56
2022-12-16T18:00:19.215Z,97535.31
2022-12-16T18:03:05.393Z,97545.50
2022-12-16T18:05:50.807Z,97544.91
2022-12-16T18:08:35.617Z,97549.69
2022-12-16T18:11:20.860Z,97583.81
2022-12-16T18:14:06.247Z,97582.66
2022-12-16T18:16:51.418Z,97605.06
2022-12-16T18:19:36.872Z,97618.03
2022-12-16T18:22:22.610Z,97618.94
2022-12-16T18:25:11.082Z,97609.53
2022-12-16T18:28:11.504Z,97612.53
2022-12-16T18:30:56.451Z,97644.00
2022-12-16T18:33:41.968Z,97653.41
2022-12-16T18:36:27.816Z,97658.75
2022-12-16T18:39:12.721Z,97645.50
2022-12-16T18:42:06.703Z,97651.28
2022-12-16T18:44:57.606Z,97663.34
2022-12-16T18:47:45.712Z,97654.84
2022-12-16T18:50:37.233Z,97673.16
2022-12-16T18:53:24.111Z,97689.81
2022-12-16T18:56:23.198Z,97678.88
2022-12-16T18:59:08.245Z,97690.34
2022-12-16T19:01:53.221Z,97684.50
2022-12-16T19:04:38.239Z,97691.84
2022-12-16T19:07:24.581Z,97705.72
2022-12-16T19:10:10.137Z,97725.34
2022-12-16T19:12:55.500Z,97716.13
2022-12-16T19:15:41.700Z,97734.34
2022-12-16T19:18:27.337Z,97714.09
2022-12-16T19:21:12.984Z,97727.00
2022-12-16T19:23:58.461Z,97736.19
2022-12-16T19:26:43.229Z,97731.13
2022-12-16T19:29:28.015Z,97700.09
2022-12-16T19:32:13.027Z,97707.22
2022-12-16T19:34:58.186Z,97693.31
2022-12-16T19:37:46.938Z,97678.00
2022-12-16T19:40:32.273Z,97699.44
2022-12-16T19:43:17.527Z,97702.75
2022-12-16T19:46:02.514Z,97702.38
2022-12-16T19:48:47.579Z,97701.59
2022-12-16T19:51:32.838Z,97716.44
2022-12-16T19:54:17.741Z,97713.66
2022-12-16T19:57:03.405Z,97729.34
2022-12-16T19:59:48.275Z,97720.00
2022-12-16T20:02:33.394Z,97721.38
2022-12-16T20:05:18.465Z,97711.75
2022-12-16T20:08:03.388Z,97709.09
2022-12-16T20:10:48.925Z,97708.13
2022-12-16T20:13:33.804Z,97716.19
2022-12-16T20:16:31.658Z,97735.19
2022-12-16T20:19:17.276Z,97730.84
2022-12-16T20:22:06.844Z,97715.00
2022-12-16T20:25:07.746Z,97708.84
2022-12-16T20:27:52.787Z,97722.19
2022-12-16T20:30:38.710Z,97721.38
2022-12-16T20:33:23.631Z,97728.22
2022-12-16T20:36:17.695Z,97740.88
2022-12-16T20:39:03.011Z,97725.88
2022-12-16T20:41:47.944Z,97750.78
2022-12-16T20:44:32.621Z,97754.59
2022-12-16T20:47:18.633Z,97771.06
2022-12-16T20:50:04.009Z,97768.66
2022-12-16T20:52:49.228Z,97785.34
2022-12-16T20:55:34.697Z,97762.00
2022-12-16T20:58:19.582Z,97771.31
2022-12-16T21:01:04.509Z,97767.56
2022-12-16T21:03:49.405Z,97741.69
2022-12-16T21:06:54.091Z,97761.63
2022-12-16T21:09:41.329Z,97776.38
2022-12-16T21:12:25.980Z,97756.16
2022-12-16T21:15:10.922Z,97754.13
2022-12-16T21:17:56.136Z,97769.84
2022-12-16T21:20:41.138Z,97782.53
2022-12-16T21:23:28.676Z,97790.25
2022-12-16T21:26:13.519Z,97780.88
2022-12-16T21:29:00.223Z,97803.19
2022-12-16T21:31:45.729Z,97784.31
2022-12-16T21:34:31.011Z,97790.53
2022-12-16T21:37:16.361Z,97807.28
2022-12-16T21:40:01.505Z,97807.09
2022-12-16T21:42:46.384Z,97813.84
2022-12-16T21:45:31.695Z,97810.22
2022-12-16T21:48:16.555Z,97818.84
2022-12-16T21:51:01.521Z,97827.56
2022-12-16T21:53:46.774Z,97826.00
2022-12-16T21:56:32.428Z,97854.88
2022-12-16T21:59:17.204Z,97856.72
2022-12-16T22:02:04.798Z,97838.84
2022-12-16T22:04:50.084Z,97825.63
2022-12-16T22:07:35.046Z,97852.91
2022-12-16T22:10:20.031Z,97858.88
2022-12-16T22:13:04.850Z,97879.16
2022-12-16T22:15:49.939Z,97870.88
2022-12-16T22:18:35.798Z,97892.84
2022-12-16T22:21:23.911Z,97899.63
2022-12-16T22:24:09.367Z,97897.19
2022-12-16T22:26:54.670Z,97913.50
2022-12-16T22:29:41.790Z,97907.19
2022-12-16T22:32:26.999Z,97895.63
2022-12-16T22:35:12.389Z,97890.78
2022-12-16T22:37:57.539Z,97891.25
2022-12-16T22:40:42.316Z,97928.66
2022-12-16T22:43:27.041Z,97923.13
2022-12-16T22:46:19.749Z,97950.13
2022-12-16T22:49:05.822Z,97947.94
2022-12-16T22:51:51.884Z,97936.47
2022-12-16T22:54:36.886Z,97932.72
2022-12-16T22:57:21.676Z,97960.69
2022-12-16T23:00:06.739Z,97932.56
2022-12-16T23:02:51.593Z,97909.53
2022-12-16T23:05:36.971Z,97947.19
2022-12-16T23:08:21.874Z,97960.31
2022-12-16T23:11:18.105Z,97968.84
2022-12-16T23:14:03.468Z,97961.97
2022-12-16T23:16:48.893Z,97976.34
2022-12-16T23:19:33.736Z,97981.81
2022-12-16T23:22:18.535Z,97981.25
2022-12-16T23:25:03.432Z,97979.56
2022-12-16T23:27:48.187Z,97995.91
2022-12-16T23:30:33.718Z,98008.66
2022-12-16T23:33:20.915Z,98022.38
2022-12-16T23:36:06.325Z,98019.34
2022-12-16T23:38:51.269Z,98010.50
2022-12-16T23:41:49.065Z,98012.81
2022-12-16T23:44:34.056Z,98040.25
2022-12-16T23:47:19.011Z,98046.63
2022-12-16T23:50:05.656Z,98051.00
2022-12-16T23:52:51.184Z,98057.81
2022-12-16T23:55:36.253Z,98042.91
2022-12-16T23:58:23.864Z,98061.19
